sensor_id;sensor_type;location;lat;lon;timestamp;pressure;altitude;pressure_sealevel;temperature;humidity
38718;BME280;24468;52.128;9.278;2023-08-01T00:00:02;99037.63;;;19.78;100.00
38718;BME280;24468;52.128;9.278;2023-08-01T00:02:28;99038.00;;;19.57;100.00
38718;BME280;24468;52.128;9.278;2023-08-01T00:04:54;99042.38;;;19.42;100.00
38718;BME280;24468;52.128;9.278;2023-08-01T00:07:20;99031.72;;;19.65;100.00
38718;BME280;24468;52.128;9.278;2023-08-01T00:09:45;99031.19;;;19.61;100.00
38718;BME280;24468;52.128;9.278;2023-08-01T00:12:11;99029.97;;;19.55;100.00
38718;BME280;24468;52.128;9.278;2023-08-01T00:14:36;99024.84;;;19.61;100.00
38718;BME280;24468;52.128;9.278;2023-08-01T00:17:02;99018.25;;;19.71;100.00
38718;BME280;24468;52.128;9.278;2023-08-01T00:19:28;99007.44;;;19.62;100.00
38718;BME280;24468;52.128;9.278;2023-08-01T00:21:54;98997.78;;;19.49;100.00
38718;BME280;24468;52.128;9.278;2023-08-01T00:24:19;98996.72;;;19.16;100.00
38718;BME280;24468;52.128;9.278;2023-08-01T00:26:45;98988.38;;;19.52;100.00
38718;BME280;24468;52.128;9.278;2023-08-01T00:29:10;98973.66;;;19.45;100.00
38718;BME280;24468;52.128;9.278;2023-08-01T00:31:36;98972.13;;;19.42;100.00
38718;BME280;24468;52.128;9.278;2023-08-01T00:34:01;98981.38;;;19.49;100.00
38718;BME280;24468;52.128;9.278;2023-08-01T00:36:27;98974.19;;;19.48;100.00
38718;BME280;24468;52.128;9.278;2023-08-01T00:38:52;98963.09;;;19.50;100.00
38718;BME280;24468;52.128;9.278;2023-08-01T00:41:18;98962.53;;;19.46;100.00
38718;BME280;24468;52.128;9.278;2023-08-01T00:43:43;98965.59;;;19.69;100.00
38718;BME280;24468;52.128;9.278;2023-08-01T00:46:09;98971.13;;;19.51;100.00
38718;BME280;24468;52.128;9.278;2023-08-01T00:48:35;98960.56;;;19.57;100.00
38718;BME280;24468;52.128;9.278;2023-08-01T00:51:05;98963.91;;;19.76;100.00
38718;BME280;24468;52.128;9.278;2023-08-01T00:53:32;98963.03;;;19.68;100.00
38718;BME280;24468;52.128;9.278;2023-08-01T00:55:58;98958.47;;;19.93;100.00
38718;BME280;24468;52.128;9.278;2023-08-01T00:58:25;98953.22;;;19.65;100.00
38718;BME280;24468;52.128;9.278;2023-08-01T01:00:51;98943.47;;;19.63;100.00
38718;BME280;24468;52.128;9.278;2023-08-01T01:03:17;98944.44;;;19.45;100.00
38718;BME280;24468;52.128;9.278;2023-08-01T01:05:53;98941.88;;;19.52;100.00
38718;BME280;24468;52.128;9.278;2023-08-01T01:08:21;98948.72;;;19.48;100.00
38718;BME280;24468;52.128;9.278;2023-08-01T01:10:47;98941.06;;;19.60;100.00
38718;BME280;24468;52.128;9.278;2023-08-01T01:13:13;98936.25;;;19.53;100.00
38718;BME280;24468;52.128;9.278;2023-08-01T01:15:38;98932.53;;;19.63;100.00
38718;BME280;24468;52.128;9.278;2023-08-01T01:18:04;98928.50;;;19.75;100.00
38718;BME280;24468;52.128;9.278;2023-08-01T01:20:36;98934.81;;;19.67;100.00
38718;BME280;24468;52.128;9.278;2023-08-01T01:23:04;98927.69;;;19.48;100.00
38718;BME280;24468;52.128;9.278;2023-08-01T01:25:31;98924.22;;;19.72;100.00
38718;BME280;24468;52.128;9.278;2023-08-01T01:27:59;98916.66;;;19.66;100.00
38718;BME280;24468;52.128;9.278;2023-08-01T01:30:27;98919.84;;;19.53;100.00
38718;BME280;24468;52.128;9.278;2023-08-01T01:32:53;98911.13;;;19.50;100.00
38718;BME280;24468;52.128;9.278;2023-08-01T01:35:19;98905.16;;;19.54;100.00
38718;BME280;24468;52.128;9.278;2023-08-01T01:37:45;98907.72;;;19.56;100.00
38718;BME280;24468;52.128;9.278;2023-08-01T01:40:10;98896.13;;;19.62;100.00
38718;BME280;24468;52.128;9.278;2023-08-01T01:42:37;98895.53;;;19.42;100.00
38718;BME280;24468;52.128;9.278;2023-08-01T01:45:03;98889.06;;;19.51;100.00
38718;BME280;24468;52.128;9.278;2023-08-01T01:47:28;98898.50;;;19.15;100.00
38718;BME280;24468;52.128;9.278;2023-08-01T01:49:54;98901.63;;;19.36;100.00
38718;BME280;24468;52.128;9.278;2023-08-01T01:52:19;98894.72;;;19.50;100.00
38718;BME280;24468;52.128;9.278;2023-08-01T01:54:45;98897.50;;;19.24;100.00
38718;BME280;24468;52.128;9.278;2023-08-01T01:57:10;98904.06;;;19.05;100.00
38718;BME280;24468;52.128;9.278;2023-08-01T01:59:36;98904.88;;;18.97;100.00
38718;BME280;24468;52.128;9.278;2023-08-01T02:02:01;98898.44;;;19.06;100.00
38718;BME280;24468;52.128;9.278;2023-08-01T02:04:30;98898.72;;;18.95;100.00
38718;BME280;24468;52.128;9.278;2023-08-01T02:06:55;98879.88;;;18.66;100.00
38718;BME280;24468;52.128;9.278;2023-08-01T02:09:21;98882.25;;;18.61;100.00
38718;BME280;24468;52.128;9.278;2023-08-01T02:11:46;98869.69;;;18.50;100.00
38718;BME280;24468;52.128;9.278;2023-08-01T02:14:13;98871.97;;;18.55;100.00
38718;BME280;24468;52.128;9.278;2023-08-01T02:16:39;98866.88;;;18.60;100.00
38718;BME280;24468;52.128;9.278;2023-08-01T02:19:04;98863.31;;;18.59;100.00
38718;BME280;24468;52.128;9.278;2023-08-01T02:21:30;98869.63;;;18.60;100.00
38718;BME280;24468;52.128;9.278;2023-08-01T02:23:55;98864.88;;;18.44;100.00
38718;BME280;24468;52.128;9.278;2023-08-01T02:26:21;98852.38;;;18.59;100.00
38718;BME280;24468;52.128;9.278;2023-08-01T02:28:48;98847.97;;;18.66;100.00
38718;BME280;24468;52.128;9.278;2023-08-01T02:31:15;98846.78;;;18.69;100.00
38718;BME280;24468;52.128;9.278;2023-08-01T02:33:40;98841.19;;;18.71;100.00
38718;BME280;24468;52.128;9.278;2023-08-01T02:36:06;98833.13;;;18.69;100.00
38718;BME280;24468;52.128;9.278;2023-08-01T02:38:31;98836.34;;;18.64;100.00
38718;BME280;24468;52.128;9.278;2023-08-01T02:40:57;98826.59;;;18.62;100.00
38718;BME280;24468;52.128;9.278;2023-08-01T02:43:23;98824.03;;;18.60;100.00
38718;BME280;24468;52.128;9.278;2023-08-01T02:45:49;98820.78;;;18.57;100.00
38718;BME280;24468;52.128;9.278;2023-08-01T02:48:14;98823.81;;;18.28;100.00
38718;BME280;24468;52.128;9.278;2023-08-01T02:50:40;98821.66;;;18.13;100.00
38718;BME280;24468;52.128;9.278;2023-08-01T02:53:05;98823.81;;;18.28;100.00
38718;BME280;24468;52.128;9.278;2023-08-01T02:55:31;98825.91;;;18.34;100.00
38718;BME280;24468;52.128;9.278;2023-08-01T02:57:57;98807.81;;;18.33;100.00
38718;BME280;24468;52.128;9.278;2023-08-01T03:00:22;98819.06;;;18.30;100.00
38718;BME280;24468;52.128;9.278;2023-08-01T03:02:48;98821.72;;;18.21;100.00
38718;BME280;24468;52.128;9.278;2023-08-01T03:05:13;98824.41;;;18.39;100.00
38718;BME280;24468;52.128;9.278;2023-08-01T03:07:39;98815.34;;;18.39;100.00
38718;BME280;24468;52.128;9.278;2023-08-01T03:10:05;98808.72;;;18.41;100.00
38718;BME280;24468;52.128;9.278;2023-08-01T03:12:32;98817.06;;;18.40;100.00
38718;BME280;24468;52.128;9.278;2023-08-01T03:14:58;98807.59;;;18.52;100.00
38718;BME280;24468;52.128;9.278;2023-08-01T03:17:23;98792.88;;;18.45;100.00
38718;BME280;24468;52.128;9.278;2023-08-01T03:19:49;98795.59;;;18.45;100.00
38718;BME280;24468;52.128;9.278;2023-08-01T03:22:15;98798.22;;;18.55;100.00
38718;BME280;24468;52.128;9.278;2023-08-01T03:24:41;98794.78;;;18.53;100.00
38718;BME280;24468;52.128;9.278;2023-08-01T03:27:07;98793.63;;;18.55;100.00
38718;BME280;24468;52.128;9.278;2023-08-01T03:29:32;98793.28;;;18.58;100.00
38718;BME280;24468;52.128;9.278;2023-08-01T03:31:58;98790.19;;;18.53;100.00
38718;BME280;24468;52.128;9.278;2023-08-01T03:34:23;98795.22;;;18.66;100.00
38718;BME280;24468;52.128;9.278;2023-08-01T03:36:49;98802.47;;;18.75;100.00
38718;BME280;24468;52.128;9.278;2023-08-01T03:39:15;98798.91;;;18.83;100.00
38718;BME280;24468;52.128;9.278;2023-08-01T03:41:41;98797.91;;;18.92;100.00
38718;BME280;24468;52.128;9.278;2023-08-01T03:44:06;98799.41;;;19.21;100.00
38718;BME280;24468;52.128;9.278;2023-08-01T03:46:31;98800.19;;;19.05;100.00
38718;BME280;24468;52.128;9.278;2023-08-01T03:48:57;98806.13;;;19.35;100.00
38718;BME280;24468;52.128;9.278;2023-08-01T03:51:23;98795.63;;;19.14;100.00
38718;BME280;24468;52.128;9.278;2023-08-01T03:53:48;98791.38;;;19.19;100.00
38718;BME280;24468;52.128;9.278;2023-08-01T03:56:14;98795.47;;;18.81;100.00
38718;BME280;24468;52.128;9.278;2023-08-01T03:58:39;98793.03;;;19.04;100.00
38718;BME280;24468;52.128;9.278;2023-08-01T04:01:05;98796.63;;;19.04;100.00
38718;BME280;24468;52.128;9.278;2023-08-01T04:03:32;98788.25;;;18.98;100.00
38718;BME280;24468;52.128;9.278;2023-08-01T04:05:57;98788.91;;;19.00;100.00
38718;BME280;24468;52.128;9.278;2023-08-01T04:08:23;98793.81;;;18.88;100.00
38718;BME280;24468;52.128;9.278;2023-08-01T04:10:49;98786.31;;;18.64;100.00
38718;BME280;24468;52.128;9.278;2023-08-01T04:13:15;98795.88;;;18.60;100.00
38718;BME280;24468;52.128;9.278;2023-08-01T04:15:41;98788.91;;;18.65;100.00
38718;BME280;24468;52.128;9.278;2023-08-01T04:18:06;98787.63;;;18.52;100.00
38718;BME280;24468;52.128;9.278;2023-08-01T04:20:32;98798.03;;;18.74;100.00
38718;BME280;24468;52.128;9.278;2023-08-01T04:22:57;98785.25;;;18.83;100.00
38718;BME280;24468;52.128;9.278;2023-08-01T04:25:23;98784.28;;;19.00;100.00
38718;BME280;24468;52.128;9.278;2023-08-01T04:27:50;98791.63;;;19.00;100.00
38718;BME280;24468;52.128;9.278;2023-08-01T04:30:16;98787.91;;;19.01;100.00
38718;BME280;24468;52.128;9.278;2023-08-01T04:32:41;98792.44;;;18.92;100.00
38718;BME280;24468;52.128;9.278;2023-08-01T04:35:07;98792.81;;;18.97;100.00
38718;BME280;24468;52.128;9.278;2023-08-01T04:37:33;98795.59;;;19.05;100.00
38718;BME280;24468;52.128;9.278;2023-08-01T04:39:58;98786.22;;;19.16;100.00
38718;BME280;24468;52.128;9.278;2023-08-01T04:42:24;98794.19;;;18.93;100.00
38718;BME280;24468;52.128;9.278;2023-08-01T04:44:49;98796.91;;;18.67;100.00
38718;BME280;24468;52.128;9.278;2023-08-01T04:47:15;98791.63;;;19.00;100.00
38718;BME280;24468;52.128;9.278;2023-08-01T04:49:41;98797.00;;;19.09;100.00
38718;BME280;24468;52.128;9.278;2023-08-01T04:52:07;98792.22;;;19.12;100.00
38718;BME280;24468;52.128;9.278;2023-08-01T04:54:32;98784.66;;;19.05;100.00
38718;BME280;24468;52.128;9.278;2023-08-01T04:56:58;98792.63;;;18.91;100.00
38718;BME280;24468;52.128;9.278;2023-08-01T04:59:23;98794.84;;;18.87;100.00
38718;BME280;24468;52.128;9.278;2023-08-01T05:01:49;98796.44;;;18.72;100.00
38718;BME280;24468;52.128;9.278;2023-08-01T05:04:14;98800.56;;;18.76;100.00
38718;BME280;24468;52.128;9.278;2023-08-01T05:06:40;98803.91;;;18.87;100.00
38718;BME280;24468;52.128;9.278;2023-08-01T05:09:06;98805.84;;;19.03;100.00
38718;BME280;24468;52.128;9.278;2023-08-01T05:11:32;98799.31;;;18.96;100.00
38718;BME280;24468;52.128;9.278;2023-08-01T05:13:57;98790.28;;;18.96;100.00
38718;BME280;24468;52.128;9.278;2023-08-01T05:16:23;98796.91;;;18.93;100.00
38718;BME280;24468;52.128;9.278;2023-08-01T05:18:48;98794.56;;;18.72;100.00
38718;BME280;24468;52.128;9.278;2023-08-01T05:21:14;98788.16;;;18.81;100.00
38718;BME280;24468;52.128;9.278;2023-08-01T05:23:39;98789.84;;;18.56;100.00
38718;BME280;24468;52.128;9.278;2023-08-01T05:26:05;98796.13;;;18.75;100.00
38718;BME280;24468;52.128;9.278;2023-08-01T05:28:30;98793.63;;;18.55;100.00
38718;BME280;24468;52.128;9.278;2023-08-01T05:30:56;98798.66;;;18.68;100.00
38718;BME280;24468;52.128;9.278;2023-08-01T05:33:21;98803.75;;;18.63;100.00
38718;BME280;24468;52.128;9.278;2023-08-01T05:35:48;98799.03;;;18.47;100.00
38718;BME280;24468;52.128;9.278;2023-08-01T05:38:14;98805.59;;;18.36;100.00
38718;BME280;24468;52.128;9.278;2023-08-01T05:40:40;98803.19;;;18.33;100.00
38718;BME280;24468;52.128;9.278;2023-08-01T05:43:05;98802.44;;;18.23;100.00
38718;BME280;24468;52.128;9.278;2023-08-01T05:45:36;98806.50;;;18.45;100.00
38718;BME280;24468;52.128;9.278;2023-08-01T05:48:02;98808.69;;;18.59;100.00
38718;BME280;24468;52.128;9.278;2023-08-01T05:50:27;98814.94;;;18.78;100.00
38718;BME280;24468;52.128;9.278;2023-08-01T05:52:53;98812.84;;;18.98;100.00
38718;BME280;24468;52.128;9.278;2023-08-01T05:55:19;98812.13;;;18.96;100.00
38718;BME280;24468;52.128;9.278;2023-08-01T05:57:45;98809.69;;;18.58;100.00
38718;BME280;24468;52.128;9.278;2023-08-01T06:00:11;98818.75;;;18.85;100.00
38718;BME280;24468;52.128;9.278;2023-08-01T06:02:37;98817.78;;;18.68;100.00
38718;BME280;24468;52.128;9.278;2023-08-01T06:05:03;98813.16;;;18.69;100.00
38718;BME280;24468;52.128;9.278;2023-08-01T06:07:29;98823.97;;;18.52;100.00
38718;BME280;24468;52.128;9.278;2023-08-01T06:09:54;98833.56;;;18.12;100.00
38718;BME280;24468;52.128;9.278;2023-08-01T06:12:20;98833.03;;;18.27;100.00
38718;BME280;24468;52.128;9.278;2023-08-01T06:14:46;98825.75;;;18.35;100.00
38718;BME280;24468;52.128;9.278;2023-08-01T06:17:12;98816.13;;;18.49;100.00
38718;BME280;24468;52.128;9.278;2023-08-01T06:19:38;98823.06;;;18.43;100.00
38718;BME280;24468;52.128;9.278;2023-08-01T06:22:04;98829.00;;;18.13;100.00
38718;BME280;24468;52.128;9.278;2023-08-01T06:24:29;98833.75;;;17.93;100.00
38718;BME280;24468;52.128;9.278;2023-08-01T06:26:55;98830.06;;;18.20;100.00
38718;BME280;24468;52.128;9.278;2023-08-01T06:29:21;98830.25;;;18.00;100.00
38718;BME280;24468;52.128;9.278;2023-08-01T06:31:46;98837.47;;;18.28;100.00
38718;BME280;24468;52.128;9.278;2023-08-01T06:34:12;98840.44;;;17.98;100.00
38718;BME280;24468;52.128;9.278;2023-08-01T06:36:37;98843.09;;;17.90;100.00
38718;BME280;24468;52.128;9.278;2023-08-01T06:39:03;98852.75;;;17.67;100.00
38718;BME280;24468;52.128;9.278;2023-08-01T06:41:29;98849.94;;;17.76;100.00
38718;BME280;24468;52.128;9.278;2023-08-01T06:43:54;98854.50;;;17.86;100.00
38718;BME280;24468;52.128;9.278;2023-08-01T06:46:20;98858.47;;;17.46;100.00
38718;BME280;24468;52.128;9.278;2023-08-01T06:48:45;98854.69;;;17.56;100.00
38718;BME280;24468;52.128;9.278;2023-08-01T06:51:11;98852.63;;;17.86;100.00
38718;BME280;24468;52.128;9.278;2023-08-01T06:53:36;98861.94;;;17.20;100.00
38718;BME280;24468;52.128;9.278;2023-08-01T06:56:02;98863.34;;;17.70;100.00
38718;BME280;24468;52.128;9.278;2023-08-01T06:58:27;98865.63;;;17.74;100.00
38718;BME280;24468;52.128;9.278;2023-08-01T07:00:53;98872.19;;;17.36;100.00
38718;BME280;24468;52.128;9.278;2023-08-01T07:03:18;98873.78;;;17.29;100.00
38718;BME280;24468;52.128;9.278;2023-08-01T07:05:44;98875.19;;;17.33;100.00
38718;BME280;24468;52.128;9.278;2023-08-01T07:08:09;98865.59;;;17.29;100.00
38718;BME280;24468;52.128;9.278;2023-08-01T07:10:35;98886.28;;;17.49;100.00
38718;BME280;24468;52.128;9.278;2023-08-01T07:13:02;98876.97;;;17.70;100.00
38718;BME280;24468;52.128;9.278;2023-08-01T07:15:32;98874.22;;;17.52;100.00
38718;BME280;24468;52.128;9.278;2023-08-01T07:17:58;98875.69;;;18.10;100.00
38718;BME280;24468;52.128;9.278;2023-08-01T07:20:23;98874.53;;;17.94;100.00
38718;BME280;24468;52.128;9.278;2023-08-01T07:22:49;98886.97;;;17.79;100.00
38718;BME280;24468;52.128;9.278;2023-08-01T07:25:14;98895.81;;;17.91;100.00
38718;BME280;24468;52.128;9.278;2023-08-01T07:27:41;98909.00;;;17.40;100.00
38718;BME280;24468;52.128;9.278;2023-08-01T07:30:08;98895.78;;;17.45;100.00
38718;BME280;24468;52.128;9.278;2023-08-01T07:32:35;98902.78;;;17.75;100.00
38718;BME280;24468;52.128;9.278;2023-08-01T07:35:02;98896.16;;;18.32;100.00
38718;BME280;24468;52.128;9.278;2023-08-01T07:37:27;98904.59;;;18.20;100.00
38718;BME280;24468;52.128;9.278;2023-08-01T07:39:57;98898.41;;;18.10;100.00
38718;BME280;24468;52.128;9.278;2023-08-01T07:42:23;98894.31;;;18.14;100.00
38718;BME280;24468;52.128;9.278;2023-08-01T07:44:48;98897.91;;;18.33;100.00
38718;BME280;24468;52.128;9.278;2023-08-01T07:47:14;98906.94;;;18.33;100.00
38718;BME280;24468;52.128;9.278;2023-08-01T07:49:39;98916.09;;;17.88;100.00
38718;BME280;24468;52.128;9.278;2023-08-01T07:52:05;98908.03;;;18.22;100.00
38718;BME280;24468;52.128;9.278;2023-08-01T07:54:31;98904.84;;;18.09;100.00
38718;BME280;24468;52.128;9.278;2023-08-01T07:56:56;98908.22;;;18.21;100.00
38718;BME280;24468;52.128;9.278;2023-08-01T07:59:22;98895.13;;;18.51;100.00
38718;BME280;24468;52.128;9.278;2023-08-01T08:01:47;98898.56;;;18.97;100.00
38718;BME280;24468;52.128;9.278;2023-08-01T08:04:13;98897.50;;;19.24;100.00
38718;BME280;24468;52.128;9.278;2023-08-01T08:06:40;98898.09;;;19.44;100.00
38718;BME280;24468;52.128;9.278;2023-08-01T08:09:06;98902.78;;;18.91;100.00
38718;BME280;24468;52.128;9.278;2023-08-01T08:11:31;98909.28;;;18.46;100.00
38718;BME280;24468;52.128;9.278;2023-08-01T08:13:59;98909.22;;;18.38;100.00
38718;BME280;24468;52.128;9.278;2023-08-01T08:16:25;98913.50;;;18.40;100.00
38718;BME280;24468;52.128;9.278;2023-08-01T08:18:50;98919.09;;;17.85;100.00
38718;BME280;24468;52.128;9.278;2023-08-01T08:21:16;98926.91;;;17.98;100.00
38718;BME280;24468;52.128;9.278;2023-08-01T08:23:41;98918.97;;;18.22;100.00
38718;BME280;24468;52.128;9.278;2023-08-01T08:26:07;98925.03;;;17.98;100.00
38718;BME280;24468;52.128;9.278;2023-08-01T08:28:33;98919.28;;;18.19;100.00
38718;BME280;24468;52.128;9.278;2023-08-01T08:31:00;98912.59;;;18.58;100.00
38718;BME280;24468;52.128;9.278;2023-08-01T08:33:27;98909.56;;;18.79;100.00
38718;BME280;24468;52.128;9.278;2023-08-01T08:35:52;98914.16;;;19.04;100.00
38718;BME280;24468;52.128;9.278;2023-08-01T08:38:18;98914.03;;;18.88;100.00
38718;BME280;24468;52.128;9.278;2023-08-01T08:41:07;98905.31;;;18.66;100.00
38718;BME280;24468;52.128;9.278;2023-08-01T08:43:33;98909.88;;;18.40;100.00
38718;BME280;24468;52.128;9.278;2023-08-01T08:46:02;98907.78;;;18.96;100.00
38718;BME280;24468;52.128;9.278;2023-08-01T08:48:28;98901.50;;;18.77;100.00
38718;BME280;24468;52.128;9.278;2023-08-01T08:50:57;98900.63;;;19.03;100.00
38718;BME280;24468;52.128;9.278;2023-08-01T08:53:24;98908.69;;;18.60;100.00
38718;BME280;24468;52.128;9.278;2023-08-01T08:55:50;98894.56;;;19.17;100.00
38718;BME280;24468;52.128;9.278;2023-08-01T08:58:16;98901.69;;;19.44;100.00
38718;BME280;24468;52.128;9.278;2023-08-01T09:00:42;98903.03;;;19.06;100.00
38718;BME280;24468;52.128;9.278;2023-08-01T09:03:08;98894.06;;;19.22;100.00
38718;BME280;24468;52.128;9.278;2023-08-01T09:05:44;98889.19;;;18.99;100.00
38718;BME280;24468;52.128;9.278;2023-08-01T09:08:19;98893.41;;;19.20;100.00
38718;BME280;24468;52.128;9.278;2023-08-01T09:10:45;98877.63;;;18.79;100.00
38718;BME280;24468;52.128;9.278;2023-08-01T09:13:11;98895.25;;;18.85;100.00
38718;BME280;24468;52.128;9.278;2023-08-01T09:15:37;98887.44;;;18.72;100.00
38718;BME280;24468;52.128;9.278;2023-08-01T09:18:07;98896.19;;;19.02;100.00
38718;BME280;24468;52.128;9.278;2023-08-01T09:20:47;98896.84;;;18.96;100.00
38718;BME280;24468;52.128;9.278;2023-08-01T09:23:13;98898.78;;;19.03;100.00
38718;BME280;24468;52.128;9.278;2023-08-01T09:25:40;98901.28;;;18.71;100.00
38718;BME280;24468;52.128;9.278;2023-08-01T09:28:20;98907.47;;;18.99;100.00
38718;BME280;24468;52.128;9.278;2023-08-01T09:30:49;98913.13;;;18.61;100.00
38718;BME280;24468;52.128;9.278;2023-08-01T09:33:15;98907.41;;;18.73;100.00
38718;BME280;24468;52.128;9.278;2023-08-01T09:35:40;98920.88;;;18.92;100.00
38718;BME280;24468;52.128;9.278;2023-08-01T09:38:06;98898.84;;;18.67;100.00
38718;BME280;24468;52.128;9.278;2023-08-01T09:40:39;98907.56;;;18.09;100.00
38718;BME280;24468;52.128;9.278;2023-08-01T09:43:06;98916.38;;;18.57;100.00
38718;BME280;24468;52.128;9.278;2023-08-01T09:45:31;98909.94;;;18.66;100.00
38718;BME280;24468;52.128;9.278;2023-08-01T09:47:57;98905.34;;;19.19;100.00
38718;BME280;24468;52.128;9.278;2023-08-01T09:50:24;98903.91;;;18.80;100.00
38718;BME280;24468;52.128;9.278;2023-08-01T09:52:50;98917.16;;;18.93;100.00
38718;BME280;24468;52.128;9.278;2023-08-01T09:55:32;98914.25;;;18.95;100.00
38718;BME280;24468;52.128;9.278;2023-08-01T09:57:59;98914.44;;;18.93;100.00
38718;BME280;24468;52.128;9.278;2023-08-01T10:00:31;98923.56;;;19.44;100.00
38718;BME280;24468;52.128;9.278;2023-08-01T10:02:58;98947.16;;;18.85;100.00
38718;BME280;24468;52.128;9.278;2023-08-01T10:05:32;98932.91;;;18.55;100.00
38718;BME280;24468;52.128;9.278;2023-08-01T10:08:00;98929.00;;;18.58;100.00
38718;BME280;24468;52.128;9.278;2023-08-01T10:10:27;98926.97;;;19.04;100.00
38718;BME280;24468;52.128;9.278;2023-08-01T10:12:56;98932.16;;;19.15;100.00
38718;BME280;24468;52.128;9.278;2023-08-01T10:15:24;98937.00;;;18.95;100.00
38718;BME280;24468;52.128;9.278;2023-08-01T10:17:51;98929.00;;;19.36;100.00
38718;BME280;24468;52.128;9.278;2023-08-01T10:20:16;98927.34;;;19.51;100.00
38718;BME280;24468;52.128;9.278;2023-08-01T10:22:44;98919.13;;;19.77;100.00
38718;BME280;24468;52.128;9.278;2023-08-01T10:25:10;98922.28;;;19.65;100.00
38718;BME280;24468;52.128;9.278;2023-08-01T10:27:36;98930.97;;;19.60;100.00
38718;BME280;24468;52.128;9.278;2023-08-01T10:30:04;98928.72;;;19.98;100.00
38718;BME280;24468;52.128;9.278;2023-08-01T10:32:36;98933.53;;;20.04;100.00
38718;BME280;24468;52.128;9.278;2023-08-01T10:35:03;98933.69;;;19.86;100.00
38718;BME280;24468;52.128;9.278;2023-08-01T10:37:45;98934.94;;;20.25;100.00
38718;BME280;24468;52.128;9.278;2023-08-01T10:40:14;98918.00;;;20.29;100.00
38718;BME280;24468;52.128;9.278;2023-08-01T10:42:42;98933.06;;;20.25;100.00
38718;BME280;24468;52.128;9.278;2023-08-01T10:45:23;98912.19;;;20.24;100.00
38718;BME280;24468;52.128;9.278;2023-08-01T10:47:52;98910.94;;;19.86;100.00
38718;BME280;24468;52.128;9.278;2023-08-01T10:50:18;98917.97;;;19.96;100.00
38718;BME280;24468;52.128;9.278;2023-08-01T10:52:45;98917.31;;;20.11;100.00
38718;BME280;24468;52.128;9.278;2023-08-01T10:55:12;98910.41;;;19.90;100.00
38718;BME280;24468;52.128;9.278;2023-08-01T10:57:49;98917.28;;;19.94;100.00
38718;BME280;24468;52.128;9.278;2023-08-01T11:00:18;98920.16;;;19.93;100.00
38718;BME280;24468;52.128;9.278;2023-08-01T11:02:50;98906.31;;;19.86;100.00
38718;BME280;24468;52.128;9.278;2023-08-01T11:05:17;98920.41;;;20.16;100.00
38718;BME280;24468;52.128;9.278;2023-08-01T11:07:54;98922.22;;;19.99;100.00
38718;BME280;24468;52.128;9.278;2023-08-01T11:10:20;98925.53;;;20.11;100.00
38718;BME280;24468;52.128;9.278;2023-08-01T11:12:46;98922.28;;;20.32;100.00
38718;BME280;24468;52.128;9.278;2023-08-01T11:15:13;98935.13;;;20.31;100.00
38718;BME280;24468;52.128;9.278;2023-08-01T11:17:41;98944.22;;;20.56;100.00
38718;BME280;24468;52.128;9.278;2023-08-01T11:20:10;98946.22;;;20.05;100.00
38718;BME280;24468;52.128;9.278;2023-08-01T11:22:59;98937.34;;;19.26;100.00
38718;BME280;24468;52.128;9.278;2023-08-01T11:25:39;98957.31;;;19.27;100.00
38718;BME280;24468;52.128;9.278;2023-08-01T11:28:08;98948.78;;;18.96;100.00
38718;BME280;24468;52.128;9.278;2023-08-01T11:30:34;98931.63;;;19.12;100.00
38718;BME280;24468;52.128;9.278;2023-08-01T11:33:00;98945.34;;;18.94;100.00
38718;BME280;24468;52.128;9.278;2023-08-01T11:35:28;98947.88;;;18.87;100.00
38718;BME280;24468;52.128;9.278;2023-08-01T11:37:54;98956.63;;;19.25;100.00
38718;BME280;24468;52.128;9.278;2023-08-01T11:40:20;98959.31;;;19.17;100.00
38718;BME280;24468;52.128;9.278;2023-08-01T11:42:49;98955.84;;;19.67;100.00
38718;BME280;24468;52.128;9.278;2023-08-01T11:45:18;98949.78;;;19.97;100.00
38718;BME280;24468;52.128;9.278;2023-08-01T11:47:47;98972.16;;;19.85;100.00
38718;BME280;24468;52.128;9.278;2023-08-01T11:50:14;98952.97;;;19.76;100.00
38718;BME280;24468;52.128;9.278;2023-08-01T11:52:40;98955.34;;;19.80;100.00
38718;BME280;24468;52.128;9.278;2023-08-01T11:55:06;98969.41;;;19.85;100.00
38718;BME280;24468;52.128;9.278;2023-08-01T11:57:32;98975.47;;;19.96;100.00
38718;BME280;24468;52.128;9.278;2023-08-01T11:59:57;98975.47;;;20.13;100.00
38718;BME280;24468;52.128;9.278;2023-08-01T12:02:28;98977.94;;;20.32;100.00
38718;BME280;24468;52.128;9.278;2023-08-01T12:04:56;98970.31;;;20.02;100.00
38718;BME280;24468;52.128;9.278;2023-08-01T12:07:25;98980.94;;;20.13;100.00
38718;BME280;24468;52.128;9.278;2023-08-01T12:10:01;98980.28;;;20.11;100.00
38718;BME280;24468;52.128;9.278;2023-08-01T12:12:28;98992.59;;;19.38;100.00
38718;BME280;24468;52.128;9.278;2023-08-01T12:14:54;99005.47;;;18.76;100.00
38718;BME280;24468;52.128;9.278;2023-08-01T12:17:21;99014.41;;;17.96;100.00
38718;BME280;24468;52.128;9.278;2023-08-01T12:19:47;99016.28;;;18.14;100.00
38718;BME280;24468;52.128;9.278;2023-08-01T12:22:13;99021.38;;;18.44;100.00
38718;BME280;24468;52.128;9.278;2023-08-01T12:24:40;99018.81;;;18.43;100.00
38718;BME280;24468;52.128;9.278;2023-08-01T12:27:07;99022.50;;;18.52;100.00
38718;BME280;24468;52.128;9.278;2023-08-01T12:29:33;99018.66;;;18.62;100.00
38718;BME280;24468;52.128;9.278;2023-08-01T12:31:58;99019.81;;;18.96;100.00
38718;BME280;24468;52.128;9.278;2023-08-01T12:34:24;99008.50;;;19.17;100.00
38718;BME280;24468;52.128;9.278;2023-08-01T12:36:49;99005.03;;;19.59;100.00
38718;BME280;24468;52.128;9.278;2023-08-01T12:39:15;99003.13;;;19.93;100.00
38718;BME280;24468;52.128;9.278;2023-08-01T12:41:41;99003.09;;;19.85;100.00
38718;BME280;24468;52.128;9.278;2023-08-01T12:44:06;99019.69;;;19.58;100.00
38718;BME280;24468;52.128;9.278;2023-08-01T12:46:32;99001.00;;;20.21;100.00